Time;durP1;ratioP1;P1;durP2;ratioP2;P2;SDS_P1;SDS_P2;PMS_P1;PMS_P2;Temp;Humidity;BMP_temperature;BMP_pressure;BME280_temperature;BME280_humidity;BME280_pressure;Samples;Min_cycle;Max_cycle;Signal;HPM_P1;HPM_P2
2024/04/07 00:00:03;;;;;;;39.30;25.55;;;;;;;-145.63;51.35;39290.22;4973185;28;20039;-62
2024/04/07 00:02:31;;;;;;;41.95;25.10;;;;;;;-145.63;51.14;39286.31;4992319;28;20049;-64
2024/04/07 00:04:56;;;;;;;35.90;24.55;;;;;;;-145.63;51.13;39329.34;4989523;28;20116;-64
2024/04/07 00:07:22;;;;;;;39.47;24.52;;;;;;;-145.63;51.12;39301.94;4991814;28;20038;-66
2024/04/07 00:09:50;;;;;;;36.05;24.95;;;;;;;-145.63;51.65;39325.41;4986612;28;20042;-64
2024/04/07 00:12:15;;;;;;;35.17;23.40;;;;;;;-145.63;51.87;39298.03;4987403;28;20061;-65
2024/04/07 00:14:43;;;;;;;35.15;24.00;;;;;;;-145.63;51.71;39337.16;4992051;28;20035;-65
2024/04/07 00:17:09;;;;;;;36.08;24.40;;;;;;;-145.63;51.38;39315.66;4990412;28;20490;-64
2024/04/07 00:19:34;;;;;;;31.48;22.95;;;;;;;-145.63;51.20;39307.81;4979342;28;20034;-65
2024/04/07 00:22:00;;;;;;;34.50;23.17;;;;;;;-145.63;51.40;39329.34;4979114;28;20042;-65
2024/04/07 00:24:26;;;;;;;33.28;23.88;;;;;;;-145.63;51.25;39311.72;4985706;28;20061;-63
2024/04/07 00:26:51;;;;;;;36.22;23.73;;;;;;;-145.63;51.31;39276.53;4985178;28;20486;-62
2024/04/07 00:29:17;;;;;;;39.67;24.13;;;;;;;-145.63;51.21;39301.94;4988493;28;20455;-64
2024/04/07 00:31:43;;;;;;;35.80;23.40;;;;;;;-145.63;51.25;39288.25;4990940;28;20057;-64
2024/04/07 00:34:08;;;;;;;33.78;24.00;;;;;;;-145.63;51.25;39325.41;4982454;28;20405;-64
2024/04/07 00:36:34;;;;;;;40.22;24.77;;;;;;;-145.63;51.24;39337.16;4978761;28;20047;-64
2024/04/07 00:39:00;;;;;;;31.15;22.95;;;;;;;-145.63;51.75;39317.59;4981197;28;20050;-65
2024/04/07 00:41:27;;;;;;;34.53;22.23;;;;;;;-145.63;51.47;39346.94;4982102;28;20117;-63
2024/04/07 00:43:52;;;;;;;36.53;24.13;;;;;;;-145.63;51.78;39309.78;4991894;28;20030;-63
2024/04/07 00:46:18;;;;;;;36.53;24.27;;;;;;;-145.63;51.64;39296.09;5006400;28;20482;-65
2024/04/07 00:48:44;;;;;;;36.47;23.52;;;;;;;-145.63;51.96;39319.56;5006309;28;20034;-63
2024/04/07 00:51:10;;;;;;;36.10;24.63;;;;;;;-145.63;51.80;39313.69;5006523;28;20537;-67
2024/04/07 00:53:36;;;;;;;41.38;24.30;;;;;;;-145.63;52.45;39309.78;4990940;28;20038;-64
2024/04/07 00:56:02;;;;;;;35.00;23.83;;;;;;;-145.63;52.33;39303.91;4982427;28;20041;-64
2024/04/07 00:58:30;;;;;;;32.78;22.27;;;;;;;-145.63;52.21;39313.69;4991630;28;20137;-62
2024/04/07 01:00:55;;;;;;;34.67;22.80;;;;;;;-145.63;51.96;39301.94;4991359;28;20050;-64
2024/04/07 01:03:21;;;;;;;32.95;22.88;;;;;;;-145.63;51.90;39329.34;4989917;28;20053;-63
2024/04/07 01:05:48;;;;;;;37.20;23.10;;;;;;;-145.63;52.15;39331.28;4990278;28;20444;-66
2024/04/07 01:08:16;;;;;;;33.25;22.90;;;;;;;-145.63;51.94;39325.41;4995016;28;20104;-64
2024/04/07 01:10:42;;;;;;;33.67;24.65;;;;;;;-145.63;51.75;39319.56;4985988;28;20053;-64
2024/04/07 01:13:09;;;;;;;34.13;23.05;;;;;;;-145.63;51.35;39341.06;4995293;28;20104;-63
2024/04/07 01:15:36;;;;;;;34.60;23.65;;;;;;;-145.63;51.60;39309.78;4994039;28;20375;-63
2024/04/07 01:18:06;;;;;;;29.35;22.40;;;;;;;-145.63;51.33;39319.56;4975442;28;20044;-65
2024/04/07 01:20:33;;;;;;;38.15;23.05;;;;;;;-145.63;51.70;39358.66;4994937;28;20459;-64
2024/04/07 01:23:01;;;;;;;33.20;24.20;;;;;;;-145.63;51.54;39333.25;4995219;28;20576;-65
2024/04/07 01:25:27;;;;;;;36.08;23.33;;;;;;;-145.63;51.59;39311.72;4994315;28;20100;-64
2024/04/07 01:27:55;;;;;;;32.75;22.35;;;;;;;-145.63;52.17;39313.69;4989644;28;20030;-64
2024/04/07 01:30:21;;;;;;;36.95;23.58;;;;;;;-145.63;51.67;39333.25;4984165;28;20102;-65
2024/04/07 01:32:47;;;;;;;31.50;22.42;;;;;;;-145.63;51.51;39319.56;4994948;28;20088;-64
2024/04/07 01:35:13;;;;;;;31.13;22.80;;;;;;;-145.63;51.33;39358.66;4985477;28;20216;-63
2024/04/07 01:37:39;;;;;;;36.05;22.83;;;;;;;-145.63;51.92;39319.56;4983318;28;20035;-65
2024/04/07 01:40:08;;;;;;;33.78;21.85;;;;;;;-145.63;51.80;39323.47;4979023;28;20478;-63
2024/04/07 01:42:35;;;;;;;29.90;22.65;;;;;;;-145.63;51.75;39421.25;4997844;28;20042;-64
2024/04/07 01:45:01;;;;;;;35.00;22.83;;;;;;;-145.63;51.86;39341.06;5009181;28;20038;-63
2024/04/07 01:47:29;;;;;;;29.67;21.20;;;;;;;-145.63;51.90;39309.78;4993958;28;20031;-63
2024/04/07 01:49:55;;;;;;;29.30;21.48;;;;;;;-145.63;51.86;39116.16;4994430;28;20459;-63
2024/04/07 01:52:21;;;;;;;32.67;21.92;;;;;;;-145.63;52.11;39323.47;4985430;28;20047;-64
2024/04/07 01:54:46;;;;;;;31.85;22.88;;;;;;;-145.63;51.96;39313.69;4974850;28;20043;-63
2024/04/07 01:57:12;;;;;;;34.40;22.65;;;;;;;-145.63;51.92;39301.94;4993780;28;20415;-63
2024/04/07 01:59:38;;;;;;;33.47;22.88;;;;;;;-145.63;51.79;39307.81;4975141;28;20084;-63
2024/04/07 02:02:04;;;;;;;33.03;23.83;;;;;;;-145.63;52.33;39343.03;4990196;28;20062;-64
2024/04/07 02:04:29;;;;;;;33.05;22.88;;;;;;;-145.63;52.47;39321.50;4983526;28;20077;-64
2024/04/07 02:06:55;;;;;;;32.35;23.13;;;;;;;-145.63;52.14;39327.38;4988857;28;20096;-63
2024/04/07 02:09:22;;;;;;;34.15;23.63;;;;;;;-145.63;52.47;39200.25;4993269;28;20085;-63
2024/04/07 02:11:48;;;;;;;35.03;23.95;;;;;;;-145.63;52.47;39309.78;4987641;28;20034;-63
2024/04/07 02:14:13;;;;;;;34.03;23.77;;;;;;;-145.63;52.51;39311.72;4977885;28;20035;-63
2024/04/07 02:16:39;;;;;;;31.63;21.98;;;;;;;-145.63;52.46;39303.91;4984752;28;20561;-65
2024/04/07 02:19:06;;;;;;;32.03;23.10;;;;;;;-145.63;52.82;39327.38;4993870;28;20030;-64
2024/04/07 02:21:32;;;;;;;35.17;24.77;;;;;;;-145.63;52.69;39337.16;4993683;28;20162;-64
2024/04/07 02:24:17;;;;;;;34.28;23.42;;;;;;;-145.63;52.39;39317.59;4992072;28;20467;-64
2024/04/07 02:26:45;;;;;;;34.70;23.88;;;;;;;-145.63;52.44;39309.78;4985872;28;20042;-64
2024/04/07 02:29:11;;;;;;;32.40;22.00;;;;;;;-145.63;52.46;39317.59;4993626;28;20116;-63
2024/04/07 02:31:37;;;;;;;30.25;22.63;;;;;;;-145.63;52.40;39296.09;4993391;28;20030;-64
2024/04/07 02:34:02;;;;;;;31.50;23.05;;;;;;;-145.63;53.04;39327.38;4987590;28;20097;-64
2024/04/07 02:36:29;;;;;;;35.25;23.50;;;;;;;-145.63;52.98;39315.66;4983090;28;20034;-65
2024/04/07 02:38:55;;;;;;;33.40;23.13;;;;;;;-145.63;52.99;39313.69;4991991;28;20034;-63
2024/04/07 02:41:21;;;;;;;38.63;25.77;;;;;;;-145.63;52.80;39329.34;4993396;28;20042;-63
2024/04/07 02:43:46;;;;;;;34.42;23.92;;;;;;;-145.63;52.69;39344.97;4982025;28;20057;-64
2024/04/07 02:48:56;;;;;;;33.47;23.25;;;;;;;-145.63;52.76;39341.06;4994136;28;20434;-65
2024/04/07 02:51:22;;;;;;;30.38;22.23;;;;;;;-145.63;52.56;39327.38;4993597;28;20034;-65
2024/04/07 02:53:47;;;;;;;31.08;23.00;;;;;;;-145.63;52.45;39321.50;4974072;28;20039;-63
2024/04/07 02:56:15;;;;;;;33.40;22.90;;;;;;;-145.63;52.83;39311.72;4989266;28;20495;-64
2024/04/07 02:58:45;;;;;;;28.95;22.15;;;;;;;-145.63;52.66;39311.72;4981344;28;20073;-67
2024/04/07 03:01:13;;;;;;;32.92;23.95;;;;;;;-145.63;52.67;39223.72;4980159;28;20042;-63
2024/04/07 03:03:39;;;;;;;33.25;23.50;;;;;;;-145.63;53.03;39305.88;4990311;28;20118;-65
2024/04/07 03:06:10;;;;;;;32.33;23.02;;;;;;;-145.63;52.94;39352.81;4980292;28;20503;-63
2024/04/07 03:08:36;;;;;;;35.92;24.40;;;;;;;-145.63;52.79;39344.97;4992427;28;20033;-65
2024/04/07 03:11:04;;;;;;;33.20;22.90;;;;;;;-145.63;52.63;39317.59;4985075;28;20456;-65
2024/04/07 03:13:31;;;;;;;35.75;24.77;;;;;;;-145.63;52.44;39327.38;4982956;28;20034;-65
2024/04/07 03:15:56;;;;;;;31.30;23.70;;;;;;;-145.63;52.86;39301.94;4982080;28;20034;-65
2024/04/07 03:18:22;;;;;;;33.08;23.45;;;;;;;-145.63;53.07;39298.03;4991923;28;20034;-63
2024/04/07 03:20:48;;;;;;;36.30;24.42;;;;;;;-145.63;52.59;39311.72;4978249;28;20058;-63
2024/04/07 03:23:14;;;;;;;32.72;22.75;;;;;;;-145.63;52.65;39288.25;4991848;28;20038;-63
2024/04/07 03:25:40;;;;;;;28.92;22.95;;;;;;;-145.63;53.06;39337.16;4992862;28;20026;-63
2024/04/07 03:28:06;;;;;;;33.35;23.17;;;;;;;-145.63;52.79;39325.41;4992169;28;20097;-64
2024/04/07 03:30:33;;;;;;;34.40;24.52;;;;;;;-145.63;53.15;39309.78;4990057;28;20022;-64
2024/04/07 03:32:59;;;;;;;33.90;24.27;;;;;;;-145.63;52.96;39301.94;4977797;28;20038;-65
2024/04/07 03:35:25;;;;;;;33.58;23.27;;;;;;;-145.63;52.78;39315.66;4975807;28;20120;-65
2024/04/07 03:37:51;;;;;;;33.92;24.40;;;;;;;-145.63;52.71;39286.31;4982333;28;20036;-64
2024/04/07 03:40:17;;;;;;;35.25;23.75;;;;;;;-145.63;52.56;39301.94;4992339;28;20033;-62
2024/04/07 03:42:45;;;;;;;34.10;23.60;;;;;;;-145.63;52.73;39280.44;4996203;28;20498;-63
2024/04/07 03:45:11;;;;;;;31.83;23.77;;;;;;;-145.63;52.40;39282.41;4991909;28;20034;-64
2024/04/07 03:47:37;;;;;;;34.38;24.38;;;;;;;-145.63;52.41;39270.66;4974551;28;20384;-65
2024/04/07 03:50:04;;;;;;;32.97;23.10;;;;;;;-145.63;52.34;39333.25;4977567;28;20042;-65
2024/04/07 03:52:31;;;;;;;38.38;24.38;;;;;;;-145.63;52.16;39010.56;4992021;28;20030;-63
2024/04/07 03:54:57;;;;;;;35.70;25.58;;;;;;;-145.63;52.21;39268.72;4987675;28;20031;-64
2024/04/07 03:57:23;;;;;;;34.22;23.25;;;;;;;-145.63;52.08;39286.31;4989850;28;20050;-63
2024/04/07 03:59:48;;;;;;;33.42;23.60;;;;;;;-145.63;52.47;39305.88;4991444;28;20046;-63
2024/04/07 04:02:30;;;;;;;36.72;24.83;;;;;;;-145.63;52.25;39290.22;4977221;28;20046;-63
2024/04/07 04:05:00;;;;;;;36.30;23.42;;;;;;;-145.63;52.17;39264.78;4980990;28;20383;-64
2024/04/07 04:07:27;;;;;;;35.55;24.48;;;;;;;-145.63;51.96;39292.19;4989652;28;20747;-64
2024/04/07 04:09:54;;;;;;;32.88;23.17;;;;;;;-145.63;51.81;39298.03;4991889;28;20136;-64
2024/04/07 04:12:21;;;;;;;38.10;23.95;;;;;;;-145.63;51.81;39278.47;4992386;28;20498;-64
2024/04/07 04:14:46;;;;;;;38.03;24.70;;;;;;;-145.63;51.75;39270.66;4981175;28;20030;-63
2024/04/07 04:17:13;;;;;;;37.28;25.05;;;;;;;-145.63;51.83;39305.88;4975707;28;20367;-64
2024/04/07 04:19:39;;;;;;;38.92;25.77;;;;;;;-145.63;51.79;39288.25;4980370;28;20037;-65
2024/04/07 04:22:05;;;;;;;36.97;24.88;;;;;;;-145.63;51.76;39286.31;4985885;28;20038;-64
2024/04/07 04:24:31;;;;;;;35.35;26.15;;;;;;;-145.63;52.19;39298.03;4976507;28;20022;-64
2024/04/07 04:26:57;;;;;;;35.72;24.48;;;;;;;-145.63;51.90;39276.53;4985417;28;20087;-63
2024/04/07 04:29:22;;;;;;;34.85;25.75;;;;;;;-145.63;52.17;39268.72;4991204;28;20103;-64
2024/04/07 04:31:49;;;;;;;39.90;26.15;;;;;;;-145.63;51.89;39241.31;4980641;28;20042;-64
2024/04/07 04:34:15;;;;;;;35.10;24.80;;;;;;;-145.63;51.47;39276.53;4973692;28;20039;-64
2024/04/07 04:36:40;;;;;;;38.17;26.20;;;;;;;-145.63;51.62;39249.16;4989851;28;20096;-63
2024/04/07 04:39:06;;;;;;;35.42;24.63;;;;;;;-145.63;51.67;39258.94;4987092;28;20027;-65
2024/04/07 04:41:33;;;;;;;37.03;24.27;;;;;;;-145.63;51.70;39313.69;4991417;28;20030;-64
2024/04/07 04:43:59;;;;;;;35.72;25.40;;;;;;;-145.63;51.34;39280.44;4995769;28;20032;-67
2024/04/07 04:46:26;;;;;;;35.78;25.48;;;;;;;-145.63;51.06;39280.44;4987188;28;20388;-64
2024/04/07 04:48:52;;;;;;;39.35;25.77;;;;;;;-145.63;50.64;39270.66;4976249;28;20122;-65
2024/04/07 04:51:17;;;;;;;37.50;25.05;;;;;;;-145.63;51.01;39276.53;4990342;28;20042;-63
2024/04/07 04:53:43;;;;;;;33.72;25.00;;;;;;;-145.63;50.96;38447.38;4977822;28;20031;-63
2024/04/07 04:56:09;;;;;;;37.40;25.70;;;;;;;-145.63;51.63;39290.22;4988873;28;20038;-65
2024/04/07 04:58:35;;;;;;;32.95;23.73;;;;;;;-145.63;50.93;39298.03;4995532;28;20057;-64
2024/04/07 05:01:11;;;;;;;39.13;24.65;;;;;;;-145.63;51.30;39296.09;4989688;28;20050;-64
2024/04/07 05:03:37;;;;;;;34.72;22.77;;;;;;;-145.63;50.57;39292.19;4976266;28;20038;-64
2024/04/07 05:06:14;;;;;;;36.25;24.60;;;;;;;-145.63;51.19;39303.91;4988448;28;20023;-64
2024/04/07 05:08:40;;;;;;;32.55;24.40;;;;;;;-145.63;50.61;39294.13;4995529;28;20034;-63
2024/04/07 05:11:07;;;;;;;34.17;23.50;;;;;;;-145.63;50.49;39294.13;4994819;28;20054;-64
2024/04/07 05:13:33;;;;;;;29.70;22.55;;;;;;;-145.63;51.03;39298.03;4995183;28;20483;-64
2024/04/07 05:16:00;;;;;;;36.03;23.38;;;;;;;-145.63;50.48;39331.28;4994753;28;20073;-65
2024/04/07 05:18:28;;;;;;;33.40;24.35;;;;;;;-145.63;51.04;39317.59;4995677;28;20113;-65
2024/04/07 05:20:57;;;;;;;32.78;23.10;;;;;;;-145.63;51.03;39319.56;4980142;28;20080;-66
2024/04/07 05:23:24;;;;;;;36.45;23.25;;;;;;;-145.63;50.57;39333.25;4979453;28;20088;-65
2024/04/07 05:25:50;;;;;;;31.20;23.23;;;;;;;-145.63;51.48;39315.66;4978698;28;20113;-64
2024/04/07 05:28:16;;;;;;;30.63;23.08;;;;;;;-145.63;51.46;39323.47;4987786;28;20415;-64
2024/04/07 05:30:43;;;;;;;32.17;23.65;;;;;;;-145.63;51.79;39309.78;4978374;28;20034;-64
2024/04/07 05:33:08;;;;;;;32.30;23.77;;;;;;;-145.63;51.18;39294.13;5009913;28;20037;-65
2024/04/07 05:35:35;;;;;;;34.53;22.52;;;;;;;-145.63;51.32;39296.09;4994630;28;20482;-64
2024/04/07 05:38:01;;;;;;;30.92;22.40;;;;;;;-145.63;51.76;39305.88;4994711;28;20034;-64
2024/04/07 05:40:27;;;;;;;27.92;22.50;;;;;;;-145.63;51.98;39290.22;4987171;28;20038;-63
2024/04/07 05:42:54;;;;;;;32.33;22.60;;;;;;;-145.63;51.44;38879.53;4997176;28;20052;-67
2024/04/07 05:45:20;;;;;;;33.65;20.73;;;;;;;-145.63;52.06;39282.41;5013663;28;20515;-65
2024/04/07 05:47:50;;;;;;;33.20;22.40;;;;;;;-145.63;52.54;39305.88;4994716;28;20037;-65
2024/04/07 05:50:16;;;;;;;32.92;22.67;;;;;;;-145.63;52.02;39305.88;4994717;28;20026;-64
2024/04/07 05:52:42;;;;;;;30.50;21.23;;;;;;;-145.63;52.48;39309.78;4983879;28;20035;-64
2024/04/07 05:55:09;;;;;;;32.33;21.73;;;;;;;-145.63;52.98;39305.88;4974862;28;20145;-65
2024/04/07 05:57:41;;;;;;;28.92;21.27;;;;;;;-145.63;52.44;39303.91;4992981;28;20074;-63
2024/04/07 06:00:12;;;;;;;32.47;21.50;;;;;;;-145.63;53.08;39307.81;4974018;28;20050;-64
2024/04/07 06:02:38;;;;;;;28.60;20.63;;;;;;;-145.63;52.75;39307.81;4993619;28;20034;-66
2024/04/07 06:05:04;;;;;;;33.50;21.55;;;;;;;-145.63;52.68;39341.06;4993090;28;20030;-65
2024/04/07 06:07:30;;;;;;;27.95;20.80;;;;;;;-145.63;52.60;39301.94;4993648;28;20042;-65
2024/04/07 06:09:56;;;;;;;29.00;20.70;;;;;;;-145.63;52.34;39317.59;4994842;28;20053;-69
2024/04/07 06:12:22;;;;;;;33.22;20.63;;;;;;;-145.63;52.63;39329.34;4994050;28;20031;-65
2024/04/07 06:14:48;;;;;;;29.92;21.02;;;;;;;-145.63;52.70;39313.69;4992968;28;20031;-65
2024/04/07 06:17:16;;;;;;;26.35;18.48;;;;;;;-145.63;52.11;39327.38;4983469;28;20037;-63
2024/04/07 06:19:41;;;;;;;32.10;21.33;;;;;;;-145.63;52.79;39292.19;4984671;28;20035;-64
2024/04/07 06:22:07;;;;;;;37.78;20.17;;;;;;;-145.63;52.52;39309.78;4988532;28;20034;-65
2024/04/07 06:24:33;;;;;;;30.90;20.05;;;;;;;-145.63;51.94;39292.19;4993231;28;20435;-65
2024/04/07 06:26:58;;;;;;;36.83;20.55;;;;;;;-145.63;52.42;39258.94;4977036;28;20035;-66
2024/04/07 06:29:24;;;;;;;27.02;20.25;;;;;;;-145.63;52.85;39282.41;4976170;28;20758;-65
2024/04/07 06:31:50;;;;;;;29.65;20.65;;;;;;;-145.63;52.50;39301.94;4977681;28;20122;-66
2024/04/07 06:34:15;;;;;;;35.45;23.08;;;;;;;-145.63;52.46;39282.41;4984630;28;20047;-66
2024/04/07 06:36:41;;;;;;;26.25;19.50;;;;;;;-145.63;51.77;39307.81;4985103;28;20167;-64
2024/04/07 06:39:08;;;;;;;25.95;19.65;;;;;;;-145.63;51.43;39286.31;4993329;28;20088;-68
2024/04/07 06:41:34;;;;;;;29.20;19.60;;;;;;;-145.63;51.66;39262.84;4987602;28;20153;-66
2024/04/07 06:44:03;;;;;;;24.80;18.40;;;;;;;-145.63;51.33;39274.56;4992342;28;20034;-65
2024/04/07 06:46:29;;;;;;;23.25;18.10;;;;;;;-145.63;51.24;39247.19;5000805;28;20022;-66
2024/04/07 06:48:55;;;;;;;22.92;18.15;;;;;;;-145.63;50.97;39255.00;4983249;28;20521;-65
2024/04/07 06:51:22;;;;;;;25.25;18.80;;;;;;;-145.63;50.59;39301.94;4993252;28;20081;-65
2024/04/07 06:53:47;;;;;;;24.42;18.70;;;;;;;-145.63;50.39;39255.00;4993014;28;20113;-66
2024/04/07 06:56:13;;;;;;;26.70;17.70;;;;;;;-145.63;50.03;39290.22;4987245;28;20790;-66
2024/04/07 06:58:39;;;;;;;29.13;18.80;;;;;;;-145.63;50.01;39284.34;4992922;28;20499;-66
2024/04/07 07:01:29;;;;;;;23.95;18.83;;;;;;;-145.63;50.39;39253.06;4992290;28;20527;-66
2024/04/07 07:03:54;;;;;;;25.40;18.48;;;;;;;-145.63;50.11;39282.41;4989655;28;20089;-64
2024/04/07 07:06:25;;;;;;;30.05;23.10;;;;;;;-145.63;49.96;39337.16;4991860;28;20053;-66
2024/04/07 07:08:54;;;;;;;26.52;18.98;;;;;;;-145.63;50.30;39274.56;4985111;28;20050;-65
2024/04/07 07:11:20;;;;;;;29.27;20.05;;;;;;;-145.63;50.18;39399.75;4992654;28;20030;-66
2024/04/07 07:13:45;;;;;;;23.25;17.95;;;;;;;-145.63;50.03;39290.22;4986480;28;20523;-65
2024/04/07 07:16:11;;;;;;;28.00;19.23;;;;;;;-145.63;50.45;39274.56;4988002;28;20041;-66
2024/04/07 07:18:37;;;;;;;24.95;17.98;;;;;;;-145.63;50.01;39276.53;4974695;28;20039;-66
2024/04/07 07:21:03;;;;;;;27.13;17.25;;;;;;;-145.63;50.03;39290.22;4978959;28;20084;-66
2024/04/07 07:23:30;;;;;;;23.20;18.27;;;;;;;-145.63;49.76;39323.47;4983088;28;20648;-68
2024/04/07 07:25:55;;;;;;;30.63;20.45;;;;;;;-145.63;49.86;39300.00;4984895;28;20375;-64
2024/04/07 07:28:21;;;;;;;23.23;19.38;;;;;;;-145.63;50.94;39309.78;4992216;28;20061;-66
2024/04/07 07:30:47;;;;;;;37.47;25.92;;;;;;;-145.63;50.47;39282.41;4988892;28;20472;-65
2024/04/07 07:33:14;;;;;;;27.00;19.30;;;;;;;-145.63;50.33;39301.94;4976042;28;20030;-69
2024/04/07 07:35:42;;;;;;;29.17;19.48;;;;;;;-145.63;50.05;39346.94;4989055;28;20471;-66
2024/04/07 07:38:08;;;;;;;34.05;19.77;;;;;;;-145.63;50.29;39303.91;4992467;28;20081;-66
2024/04/07 07:40:34;;;;;;;28.60;19.70;;;;;;;-145.63;50.57;39290.22;4991732;28;20340;-64
2024/04/07 07:43:17;;;;;;;50.90;32.33;;;;;;;-145.63;50.51;39280.44;4991883;28;20037;-65
2024/04/07 07:46:04;;;;;;;27.90;20.17;;;;;;;-145.63;50.57;39305.88;4989047;28;20440;-64
2024/04/07 07:48:53;;;;;;;23.83;18.45;;;;;;;-145.63;50.45;39256.97;4988929;28;20439;-66
2024/04/07 07:51:25;;;;;;;23.92;19.08;;;;;;;-145.63;50.24;39288.25;4987283;28;20041;-66
2024/04/07 07:54:06;;;;;;;27.67;19.20;;;;;;;-145.63;49.90;39264.78;4982982;28;20042;-65
2024/04/07 07:56:35;;;;;;;29.60;19.88;;;;;;;-145.63;50.24;39266.75;4986097;28;20038;-65
2024/04/07 07:59:01;;;;;;;27.20;19.23;;;;;;;-145.63;50.08;39235.47;4980127;28;20086;-65
2024/04/07 08:01:27;;;;;;;27.65;18.70;;;;;;;-145.63;49.71;39260.88;4988262;28;20053;-66
2024/04/07 08:03:52;;;;;;;26.60;19.23;;;;;;;-145.63;49.73;39262.84;4989628;28;20049;-64
2024/04/07 08:06:19;;;;;;;30.48;19.70;;;;;;;-145.63;49.61;39233.50;4986203;28;20027;-64
2024/04/07 08:08:44;;;;;;;29.45;19.63;;;;;;;-145.63;49.25;39278.47;4975649;28;20027;-65
2024/04/07 08:11:10;;;;;;;26.08;17.75;;;;;;;-145.63;49.32;39239.38;4981929;28;20043;-64
2024/04/07 08:13:35;;;;;;;28.00;18.45;;;;;;;-145.63;49.06;39258.94;4973692;28;20046;-65
2024/04/07 08:16:02;;;;;;;29.75;19.52;;;;;;;-145.63;49.36;39258.94;4988692;28;20039;-66
2024/04/07 08:18:30;;;;;;;36.95;28.27;;;;;;;-145.63;49.03;39270.66;4972191;28;20034;-64
2024/04/07 08:20:55;;;;;;;32.88;20.25;;;;;;;-145.63;49.08;39256.97;4990464;28;20469;-65
2024/04/07 08:23:21;;;;;;;32.65;18.85;;;;;;;-145.63;48.43;39247.19;4992101;28;20126;-66
2024/04/07 08:25:47;;;;;;;24.48;18.50;;;;;;;-145.63;48.77;39264.78;4986778;28;20066;-65
2024/04/07 08:28:13;;;;;;;27.42;19.00;;;;;;;-145.63;48.78;39256.97;4986176;28;20038;-65
2024/04/07 08:30:38;;;;;;;30.35;20.42;;;;;;;-145.63;49.06;39249.16;4974096;28;20483;-66
2024/04/07 08:33:04;;;;;;;25.73;18.60;;;;;;;-145.63;48.27;39239.38;4972360;28;20045;-65
2024/04/07 08:35:30;;;;;;;32.17;19.00;;;;;;;-145.63;47.87;39190.47;4973986;28;20124;-66
2024/04/07 08:37:56;;;;;;;28.45;19.08;;;;;;;-145.63;48.37;39212.00;5006857;28;20030;-63
2024/04/07 08:40:21;;;;;;;25.70;19.80;;;;;;;-145.63;47.44;39192.44;4986914;28;20418;-64
2024/04/07 08:42:49;;;;;;;27.88;19.65;;;;;;;-145.63;47.45;39168.97;4992444;28;20141;-66
2024/04/07 08:45:18;;;;;;;42.67;29.58;;;;;;;-145.63;47.41;39202.22;4999405;28;20038;-65
2024/04/07 08:47:44;;;;;;;29.08;20.33;;;;;;;-145.63;46.70;39215.91;4990057;28;20137;-65
2024/04/07 08:50:26;;;;;;;27.88;18.70;;;;;;;-145.63;46.12;39178.75;4981410;28;20027;-63
2024/04/07 08:56:20;;;;;;;28.10;18.50;;;;;;;-145.63;44.13;39145.50;4981672;28;20038;-64
2024/04/07 08:59:07;;;;;;;28.77;18.60;;;;;;;-145.63;43.97;39125.94;4975960;28;20041;-65
2024/04/07 09:01:34;;;;;;;56.13;19.90;;;;;;;-145.63;43.61;39059.44;4988592;28;20065;-66
2024/04/07 09:04:00;;;;;;;32.95;19.17;;;;;;;-145.63;44.49;39137.69;4986905;28;20038;-67
2024/04/07 09:06:30;;;;;;;29.45;19.73;;;;;;;-145.63;43.37;39127.91;4990849;28;20395;-66
2024/04/07 09:09:05;;;;;;;26.05;18.40;;;;;;;-145.63;42.28;39143.53;4973347;28;20035;-64
2024/04/07 09:11:38;;;;;;;28.45;19.48;;;;;;;-145.63;43.26;39116.16;4988284;28;20038;-65
2024/04/07 09:14:26;;;;;;;24.13;18.17;;;;;;;-145.63;42.64;39112.25;4985406;28;20053;-66
2024/04/07 09:17:25;;;;;;;23.13;17.95;;;;;;;-145.63;41.63;39098.56;4983608;28;20049;-66
2024/04/07 09:19:54;;;;;;;28.70;19.83;;;;;;;-145.63;42.05;39108.34;4990388;28;20038;-65
2024/04/07 09:22:20;;;;;;;23.80;18.85;;;;;;;-145.63;41.82;39096.59;4988512;28;20041;-65
2024/04/07 09:24:45;;;;;;;24.90;17.65;;;;;;;-145.63;41.95;39057.50;4991016;28;20026;-65
2024/04/07 09:27:23;;;;;;;37.15;22.50;;;;;;;-145.63;42.15;39067.28;4985241;28;20066;-65
2024/04/07 09:30:00;;;;;;;23.85;17.35;;;;;;;-145.63;41.63;39100.50;4994780;28;20117;-65
2024/04/07 09:32:44;;;;;;;25.05;16.67;;;;;;;-145.63;41.88;39096.59;4982759;28;20031;-65
2024/04/07 09:35:15;;;;;;;27.65;17.83;;;;;;;-145.63;42.16;39110.28;4990642;28;20040;-64
2024/04/07 09:37:55;;;;;;;28.42;17.60;;;;;;;-145.63;42.48;39108.34;4985768;28;20042;-64
2024/04/07 09:40:30;;;;;;;24.65;17.02;;;;;;;-145.63;42.21;39135.72;4993270;28;20065;-65
2024/04/07 09:43:08;;;;;;;28.02;18.10;;;;;;;-145.63;41.59;39108.34;4993367;28;20386;-65
2024/04/07 09:45:45;;;;;;;26.50;17.27;;;;;;;-145.63;42.07;39127.91;4993232;28;20064;-64
2024/04/07 09:48:15;;;;;;;24.85;16.15;;;;;;;-145.63;42.88;38613.59;4980769;28;20042;-68
2024/04/07 09:51:04;;;;;;;23.40;16.75;;;;;;;-145.63;43.09;39137.69;4988651;28;20460;-68
2024/04/07 09:53:56;;;;;;;23.45;17.63;;;;;;;-145.63;42.80;39116.16;4992539;28;20135;-70
2024/04/07 09:56:36;;;;;;;24.30;17.83;;;;;;;-145.63;41.88;39149.41;4994189;28;20105;-68
2024/04/07 09:59:04;;;;;;;21.65;15.38;;;;;;;-145.63;42.50;39129.84;4950804;28;20058;-70
2024/04/07 10:01:30;;;;;;;21.52;16.08;;;;;;;-145.63;42.97;39133.75;4981085;28;20157;-70
2024/04/07 10:03:56;;;;;;;24.38;17.13;;;;;;;-145.63;42.30;39077.06;4992532;28;20030;-70
2024/04/07 10:06:29;;;;;;;22.90;15.65;;;;;;;-145.63;42.05;39102.47;4994592;28;20030;-68
2024/04/07 10:09:22;;;;;;;27.65;16.83;;;;;;;-145.63;42.46;39082.91;4984742;28;20495;-66
2024/04/07 10:14:51;;;;;;;21.52;15.68;;;;;;;-145.63;41.42;39114.22;4990609;28;20046;-65
2024/04/07 10:17:16;;;;;;;22.08;14.65;;;;;;;-145.63;41.87;39063.34;4993008;28;20128;-67
2024/04/07 10:19:46;;;;;;;18.90;13.27;;;;;;;-145.63;41.51;39057.50;4986506;28;20027;-66
2024/04/07 10:22:15;;;;;;;24.10;14.05;;;;;;;-145.63;41.63;39071.19;4986144;28;20046;-66
2024/04/07 10:24:58;;;;;;;21.98;15.10;;;;;;;-145.63;41.02;39073.13;4984800;28;20030;-66
2024/04/07 10:27:42;;;;;;;24.27;15.90;;;;;;;-145.63;41.15;39004.69;4991099;28;20042;-66
2024/04/07 10:30:36;;;;;;;16.70;12.60;;;;;;;-145.63;41.41;39030.13;4993564;28;20660;-66
2024/04/07 10:33:33;;;;;;;18.85;13.20;;;;;;;-145.63;40.96;39024.25;4988495;28;20096;-66
2024/04/07 10:36:06;;;;;;;29.02;18.02;;;;;;;-145.63;42.01;39012.50;4992671;28;20101;-65
2024/04/07 10:38:56;;;;;;;24.25;15.27;;;;;;;-145.63;40.95;39055.53;4979714;28;20404;-63
2024/04/07 10:41:42;;;;;;;23.20;14.77;;;;;;;-145.63;40.79;39082.91;4985200;28;20113;-65
2024/04/07 10:44:21;;;;;;;20.25;14.18;;;;;;;-145.63;41.17;39067.28;5000395;28;20061;-66
2024/04/07 10:46:50;;;;;;;13.93;10.65;;;;;;;-145.63;41.40;39096.59;4984128;28;20169;-67
2024/04/07 10:49:20;;;;;;;15.88;9.77;;;;;;;-145.63;41.17;39116.16;4974421;28;20479;-68
2024/04/07 10:51:53;;;;;;;13.38;9.52;;;;;;;-145.63;41.42;39028.16;4993283;28;20650;-66
2024/04/07 10:54:22;;;;;;;15.52;9.65;;;;;;;-145.63;41.78;39047.72;4988759;28;20042;-66
2024/04/07 10:57:09;;;;;;;15.55;10.73;;;;;;;-145.63;42.05;39026.19;4992436;28;20337;-67
2024/04/07 11:00:26;;;;;;;14.18;10.32;;;;;;;-145.63;41.21;39055.53;4993946;28;20459;-66
2024/04/07 11:03:04;;;;;;;11.88;8.75;;;;;;;-145.63;40.23;39024.25;4992599;28;20101;-71
2024/04/07 11:05:32;;;;;;;14.68;8.40;;;;;;;-145.63;40.58;39067.28;4991641;28;20611;-70
2024/04/07 11:07:59;;;;;;;10.73;8.90;;;;;;;-145.63;40.31;38484.53;4982743;28;20043;-68
2024/04/07 11:10:39;;;;;;;15.18;9.63;;;;;;;-145.63;39.99;38715.28;4984371;28;20345;-71
2024/04/07 11:13:24;;;;;;;14.73;10.07;;;;;;;-145.63;40.07;39020.34;4992841;28;20108;-71
2024/04/07 11:16:39;;;;;;;15.93;10.50;;;;;;;-145.63;40.46;39004.69;4991634;28;20038;-69
2024/04/07 11:19:32;;;;;;;15.93;9.90;;;;;;;-145.63;39.58;39012.50;4960177;28;20120;-70